Time;durP1;ratioP1;P1;durP2;ratioP2;P2;SDS_P1;SDS_P2;PMS_P1;PMS_P2;Temp;Humidity;BMP_temperature;BMP_pressure;BME280_temperature;BME280_humidity;BME280_pressure;Samples;Min_cycle;Max_cycle;Signal;HPM_P1;HPM_P2
2021/07/24 00:01:40;;;;;;;25.17;17.92;;;;;;;15.51;100.00;98699.50;1617909;85;21622;-59
2021/07/24 00:04:07;;;;;;;19.85;11.10;;;;;;;15.49;100.00;98692.83;1612820;87;21113;-57
2021/07/24 00:06:35;;;;;;;14.63;7.10;;;;;;;15.46;100.00;98692.78;1623044;87;21117;-58
2021/07/24 00:09:04;;;;;;;10.70;6.30;;;;;;;15.44;100.00;98694.08;1617013;87;21075;-59
2021/07/24 00:11:32;;;;;;;11.75;6.28;;;;;;;15.42;100.00;98695.63;1618608;87;21118;-58
2021/07/24 00:14:00;;;;;;;12.37;6.03;;;;;;;15.40;100.00;98697.73;1628135;87;21110;-57
2021/07/24 00:16:27;;;;;;;12.65;5.60;;;;;;;15.36;100.00;98693.42;1628398;86;21083;-57
2021/07/24 00:18:56;;;;;;;12.95;6.15;;;;;;;15.35;100.00;98693.67;1623584;86;21115;-57
2021/07/24 00:21:24;;;;;;;13.20;5.45;;;;;;;15.33;100.00;98697.10;1623012;87;21535;-61
2021/07/24 00:23:52;;;;;;;13.60;5.60;;;;;;;15.31;100.00;98694.70;1627349;87;21056;-57
2021/07/24 00:26:20;;;;;;;15.32;5.42;;;;;;;15.26;100.00;98703.91;1627651;87;21098;-57
2021/07/24 00:28:49;;;;;;;12.37;5.50;;;;;;;15.23;100.00;98699.59;1638927;85;21616;-58
2021/07/24 00:31:18;;;;;;;16.17;6.03;;;;;;;15.20;100.00;98700.09;1623796;87;21563;-59
2021/07/24 00:33:48;;;;;;;10.28;5.40;;;;;;;15.18;100.00;98692.34;1640590;86;21111;-60
2021/07/24 00:36:16;;;;;;;11.08;5.35;;;;;;;15.18;100.00;98697.66;1630446;86;21091;-59
2021/07/24 00:38:43;;;;;;;11.38;5.67;;;;;;;15.20;100.00;98707.53;1628771;86;21117;-60
2021/07/24 00:41:46;;;;;;;13.28;5.70;;;;;;;15.23;100.00;98702.25;1630869;86;21110;-58
2021/07/24 00:44:17;;;;;;;10.03;5.70;;;;;;;15.25;100.00;98703.60;1628702;85;21542;-58
2021/07/24 00:46:45;;;;;;;15.43;5.60;;;;;;;15.25;100.00;98700.14;1627011;86;21076;-60
2021/07/24 00:49:13;;;;;;;11.75;5.75;;;;;;;15.27;100.00;98695.41;1620390;86;21063;-54
2021/07/24 00:51:47;;;;;;;13.13;6.20;;;;;;;15.30;100.00;98693.06;1618785;87;21134;-58
2021/07/24 00:54:16;;;;;;;12.23;5.87;;;;;;;15.34;100.00;98694.20;1618843;87;21091;-57
2021/07/24 00:56:44;;;;;;;11.33;5.92;;;;;;;15.37;100.00;98691.07;1617920;85;21060;-57
2021/07/24 00:59:12;;;;;;;12.88;5.62;;;;;;;15.43;100.00;98696.46;1634473;86;21087;-58
2021/07/24 01:01:42;;;;;;;16.65;5.83;;;;;;;15.47;100.00;98697.56;1613063;87;21560;-59
2021/07/24 01:04:10;;;;;;;11.80;5.83;;;;;;;15.50;100.00;98692.58;1647606;85;21589;-57
2021/07/24 01:06:39;;;;;;;14.83;6.17;;;;;;;15.55;100.00;98691.86;1640349;85;21550;-61
2021/07/24 01:09:07;;;;;;;15.93;6.22;;;;;;;15.58;100.00;98693.48;1608722;87;21596;-60
2021/07/24 01:11:36;;;;;;;16.05;6.55;;;;;;;15.62;100.00;98696.47;1606797;87;21590;-53
2021/07/24 01:14:05;;;;;;;12.68;5.55;;;;;;;15.65;100.00;98696.00;1626704;86;21570;-53
2021/07/24 01:16:33;;;;;;;13.15;5.85;;;;;;;15.65;100.00;98688.02;1622426;86;21059;-54
2021/07/24 01:19:05;;;;;;;11.48;5.87;;;;;;;15.69;100.00;98697.66;1642044;85;21070;-54
2021/07/24 01:21:35;;;;;;;17.35;6.12;;;;;;;15.70;100.00;98687.30;1635510;86;21110;-56
2021/07/24 01:24:03;;;;;;;11.18;5.65;;;;;;;15.71;100.00;98685.72;1621618;87;21638;-54
2021/07/24 01:26:35;;;;;;;13.20;5.50;;;;;;;15.72;100.00;98691.34;1618050;87;21075;-54
2021/07/24 01:29:04;;;;;;;12.07;5.83;;;;;;;15.70;100.00;98686.77;1600494;86;21095;-54
2021/07/24 01:31:33;;;;;;;13.72;6.15;;;;;;;15.70;100.00;98685.97;1635887;85;21102;-53
2021/07/24 01:34:00;;;;;;;10.03;5.47;;;;;;;15.67;100.00;98691.27;1633882;87;21104;-53
2021/07/24 01:36:29;;;;;;;11.63;5.58;;;;;;;15.66;100.00;98684.34;1617232;87;21558;-53
2021/07/24 01:38:58;;;;;;;11.57;6.03;;;;;;;15.69;100.00;98682.51;1619903;87;22516;-53
2021/07/24 01:41:26;;;;;;;13.60;5.62;;;;;;;15.71;100.00;98672.43;1624545;86;21068;-56
2021/07/24 01:43:54;;;;;;;11.25;5.80;;;;;;;15.74;100.00;98680.45;1641114;86;21116;-56
2021/07/24 01:46:21;;;;;;;12.90;5.95;;;;;;;15.76;100.00;98679.67;1634063;85;21051;-54
2021/07/24 01:48:55;;;;;;;15.90;8.00;;;;;;;15.80;100.00;98678.14;1624503;87;21206;-56
2021/07/24 01:54:17;;;;;;;49.35;25.12;;;;;;;15.86;100.00;98686.46;1627156;86;21106;-54
2021/07/24 01:56:45;;;;;;;99.05;53.13;;;;;;;15.88;100.00;98679.83;1634720;85;21059;-53
2021/07/24 01:59:14;;;;;;;42.20;21.62;;;;;;;15.90;100.00;98679.08;1600554;87;21507;-57
2021/07/24 02:01:44;;;;;;;18.00;7.93;;;;;;;15.94;100.00;98671.40;1631043;87;21075;-54
2021/07/24 02:04:19;;;;;;;15.48;6.00;;;;;;;15.98;100.00;98681.02;1619107;87;21098;-56
2021/07/24 02:06:49;;;;;;;10.65;5.40;;;;;;;16.00;100.00;98683.73;1610795;85;21066;-58
2021/07/24 02:09:25;;;;;;;17.50;5.78;;;;;;;16.02;100.00;98681.63;1631680;87;21097;-55
2021/07/24 02:11:57;;;;;;;16.30;5.60;;;;;;;16.04;100.00;98681.37;1628683;87;21111;-53
2021/07/24 02:14:27;;;;;;;12.90;5.47;;;;;;;16.04;100.00;98682.17;1624238;86;21145;-54
2021/07/24 02:16:58;;;;;;;12.20;5.22;;;;;;;16.04;100.00;98694.13;1622144;86;21111;-54
2021/07/24 02:19:31;;;;;;;14.53;6.03;;;;;;;16.03;100.00;98691.73;1598619;89;21115;-53
2021/07/24 02:22:02;;;;;;;10.23;5.10;;;;;;;16.02;100.00;98684.81;1641112;85;21095;-56
2021/07/24 02:24:31;;;;;;;11.45;5.72;;;;;;;16.02;100.00;98681.63;1600610;86;21126;-54
2021/07/24 02:26:59;;;;;;;12.23;5.65;;;;;;;16.03;100.00;98692.53;1628913;86;21133;-53
2021/07/24 02:29:29;;;;;;;15.05;5.87;;;;;;;16.05;100.00;98683.77;1637583;86;21117;-57
2021/07/24 02:31:57;;;;;;;11.20;5.30;;;;;;;16.06;100.00;98687.27;1624016;87;21135;-57
2021/07/24 02:34:25;;;;;;;16.73;5.70;;;;;;;16.10;100.00;98687.83;1623153;87;21978;-56
2021/07/24 02:36:53;;;;;;;15.03;5.55;;;;;;;16.12;100.00;98687.60;1633977;86;21087;-53
2021/07/24 02:39:20;;;;;;;14.03;6.05;;;;;;;16.14;100.00;98689.48;1624373;87;21539;-56
2021/07/24 02:41:49;;;;;;;16.50;5.53;;;;;;;16.18;99.70;98686.08;1620234;87;21173;-55
2021/07/24 02:44:18;;;;;;;14.85;5.60;;;;;;;16.25;99.29;98693.87;1613843;87;21130;-53
2021/07/24 02:46:46;;;;;;;13.35;5.67;;;;;;;16.38;98.73;98692.67;1630715;86;21051;-54
2021/07/24 02:49:17;;;;;;;16.75;5.87;;;;;;;16.48;97.98;98683.48;1625466;85;21024;-57
2021/07/24 02:51:46;;;;;;;15.10;5.87;;;;;;;16.54;97.29;98687.00;1624496;87;21055;-57
2021/07/24 02:54:17;;;;;;;;;;;;;;;16.55;96.93;98696.58;1634265;85;21032;-53
2021/07/24 02:56:46;;;;;;;14.03;5.72;;;;;;;16.53;96.75;98689.39;1627902;87;20117;-54
2021/07/24 02:59:14;;;;;;;14.80;6.10;;;;;;;16.51;96.61;98691.48;1618090;87;21031;-53
2021/07/24 03:01:43;;;;;;;13.18;5.85;;;;;;;16.50;96.70;98693.33;1620388;87;21558;-53
2021/07/24 03:04:11;;;;;;;15.23;6.15;;;;;;;16.51;96.75;98691.48;1627194;86;21085;-55
2021/07/24 03:06:39;;;;;;;21.97;6.33;;;;;;;16.52;96.73;98691.25;1620041;86;21531;-55
2021/07/24 03:09:07;;;;;;;14.28;6.20;;;;;;;16.53;96.81;98690.72;1640457;86;21061;-56
2021/07/24 03:11:35;;;;;;;11.78;5.65;;;;;;;16.55;96.62;98688.07;1625976;85;21088;-53
2021/07/24 03:14:03;;;;;;;12.65;5.45;;;;;;;16.56;96.59;98691.00;1629995;87;21539;-60
2021/07/24 03:16:32;;;;;;;12.20;5.50;;;;;;;16.57;96.81;98689.94;1625631;86;21027;-56
2021/07/24 03:19:00;;;;;;;13.20;5.37;;;;;;;16.62;97.03;98695.32;1631046;85;21105;-56
2021/07/24 03:21:28;;;;;;;13.32;5.50;;;;;;;16.64;96.66;98693.23;1636399;86;21072;-60
2021/07/24 03:23:56;;;;;;;10.23;5.53;;;;;;;16.66;96.46;98694.30;1632405;86;21065;-59
2021/07/24 03:26:24;;;;;;;13.58;5.50;;;;;;;16.67;96.20;98699.90;1600098;87;21078;-59
2021/07/24 03:28:52;;;;;;;10.53;5.67;;;;;;;16.70;96.23;98700.24;1630918;86;21102;-57
2021/07/24 03:31:19;;;;;;;16.07;5.05;;;;;;;16.75;96.08;98698.70;1634471;86;21067;-57
2021/07/24 03:33:47;;;;;;;11.40;5.12;;;;;;;16.79;95.81;98689.93;1623191;86;21082;-57
2021/07/24 03:36:15;;;;;;;16.20;5.65;;;;;;;16.82;95.78;98690.77;1623209;87;21123;-56
2021/07/24 03:38:43;;;;;;;34.43;15.75;;;;;;;16.87;95.59;98693.48;1626426;87;21032;-56
2021/07/24 03:41:12;;;;;;;22.67;8.28;;;;;;;16.91;95.28;98697.77;1629526;86;21595;-55
2021/07/24 03:43:42;;;;;;;13.88;5.87;;;;;;;16.95;95.28;98698.34;1630323;87;21085;-54
2021/07/24 03:46:16;;;;;;;19.20;6.30;;;;;;;16.97;94.76;98699.41;1626065;87;21073;-59
2021/07/24 03:48:44;;;;;;;18.32;6.72;;;;;;;16.98;94.85;98699.18;1630191;85;21179;-62
2021/07/24 03:51:13;;;;;;;16.73;6.03;;;;;;;17.02;94.93;98697.33;1617687;86;21079;-59
2021/07/24 03:53:41;;;;;;;36.00;16.40;;;;;;;17.07;94.86;98704.03;1614482;87;21094;-58
2021/07/24 03:56:16;;;;;;;22.45;10.30;;;;;;;17.11;94.83;98698.48;1624070;87;21063;-57
2021/07/24 03:58:45;;;;;;;33.50;15.45;;;;;;;17.18;94.53;98695.07;1620108;86;21594;-58
2021/07/24 04:01:13;;;;;;;35.68;14.90;;;;;;;17.24;94.46;98699.38;1624367;87;21186;-59
2021/07/24 04:03:41;;;;;;;31.97;14.98;;;;;;;17.32;94.67;98700.77;1629965;87;21593;-58
2021/07/24 04:06:11;;;;;;;24.35;8.75;;;;;;;17.37;94.13;98696.27;1634766;87;21550;-58
2021/07/24 04:08:39;;;;;;;12.18;6.35;;;;;;;17.45;93.94;98701.14;1637938;86;21044;-59
2021/07/24 04:11:07;;;;;;;17.73;6.33;;;;;;;17.55;93.60;98704.42;1638519;86;21162;-54
2021/07/24 04:13:36;;;;;;;14.55;5.83;;;;;;;17.67;93.10;98694.89;1559020;87;21615;-59
2021/07/24 04:16:06;;;;;;;14.68;5.67;;;;;;;17.75;92.77;98700.56;1593600;87;21096;-57
2021/07/24 04:18:34;;;;;;;19.73;6.67;;;;;;;17.86;92.46;98706.75;1624203;85;21101;-57
2021/07/24 04:21:02;;;;;;;13.75;5.75;;;;;;;17.97;92.16;98703.61;1631535;87;21013;-55
2021/07/24 04:23:30;;;;;;;14.30;5.75;;;;;;;18.09;91.75;98702.07;1632321;86;21121;-59
2021/07/24 04:25:58;;;;;;;12.13;5.70;;;;;;;18.20;91.09;98705.05;1628110;85;21123;-56
2021/07/24 04:28:25;;;;;;;17.57;7.28;;;;;;;18.33;90.23;98700.56;1637005;85;21111;-57
2021/07/24 04:30:53;;;;;;;10.48;5.62;;;;;;;18.45;89.77;98693.66;1651417;85;21090;-59
2021/07/24 04:33:21;;;;;;;17.00;6.30;;;;;;;18.59;89.08;98696.11;1633318;86;21102;-60
2021/07/24 04:35:49;;;;;;;18.77;6.50;;;;;;;18.73;88.42;98695.89;1624537;87;21084;-59
2021/07/24 04:38:17;;;;;;;17.42;6.25;;;;;;;18.88;87.84;98703.13;1636098;86;21081;-60
2021/07/24 04:40:45;;;;;;;18.20;6.72;;;;;;;19.05;87.03;98702.88;1634228;86;21054;-60
2021/07/24 04:43:13;;;;;;;14.75;6.10;;;;;;;19.22;86.39;98697.28;1628033;85;21087;-58
2021/07/24 04:45:43;;;;;;;11.05;5.78;;;;;;;19.36;85.61;98700.46;1636210;85;21082;-56
2021/07/24 04:48:11;;;;;;;13.15;5.87;;;;;;;19.52;84.90;98697.78;1613590;85;21676;-58
2021/07/24 04:50:45;;;;;;;14.98;6.00;;;;;;;19.73;83.95;98702.06;1629927;85;21034;-57
2021/07/24 04:53:14;;;;;;;13.20;6.53;;;;;;;20.04;82.85;98697.95;1632856;85;21567;-59
2021/07/24 04:55:41;;;;;;;16.48;6.92;;;;;;;20.72;81.28;98696.84;1619861;87;21050;-56
2021/07/24 04:58:09;;;;;;;14.20;6.20;;;;;;;21.34;77.97;98701.25;1623345;86;21215;-56
2021/07/24 05:00:38;;;;;;;16.55;7.22;;;;;;;21.75;75.39;98700.31;1620954;87;21104;-58
2021/07/24 05:03:08;;;;;;;15.15;7.08;;;;;;;22.04;73.59;98695.44;1624400;87;21096;-58
2021/07/24 05:05:37;;;;;;;14.93;7.53;;;;;;;22.26;71.91;98701.10;1601685;87;21582;-53
2021/07/24 05:08:07;;;;;;;16.02;6.90;;;;;;;22.47;71.09;98699.73;1631198;85;21039;-56
2021/07/24 05:10:36;;;;;;;14.95;6.58;;;;;;;22.74;69.54;98702.33;1598175;87;21099;-55
2021/07/24 05:13:04;;;;;;;14.30;6.60;;;;;;;22.94;68.34;98700.72;1649144;85;21494;-58
2021/07/24 05:15:31;;;;;;;14.68;6.35;;;;;;;23.10;67.35;98703.95;1642199;86;21087;-61
2021/07/24 05:17:59;;;;;;;20.60;8.00;;;;;;;23.62;66.78;98700.67;1640598;86;21110;-57
2021/07/24 05:20:29;;;;;;;15.83;6.97;;;;;;;24.13;64.90;98698.36;1639341;85;21055;-57
2021/07/24 05:22:57;;;;;;;15.28;7.67;;;;;;;24.69;63.09;98708.53;1641983;85;21056;-55
2021/07/24 05:25:25;;;;;;;16.35;8.65;;;;;;;25.15;61.37;98702.34;1641440;86;21052;-58
2021/07/24 05:27:53;;;;;;;13.13;6.17;;;;;;;25.78;60.11;98702.41;1652194;85;21191;-58
2021/07/24 05:30:21;;;;;;;12.85;6.30;;;;;;;26.26;58.12;98698.89;1655186;84;21097;-57
2021/07/24 05:32:49;;;;;;;15.38;6.25;;;;;;;26.43;56.51;98693.00;1679885;83;21070;-56
2021/07/24 05:35:17;;;;;;;13.25;6.40;;;;;;;26.41;56.10;98696.58;1686875;84;21070;-58
2021/07/24 05:37:45;;;;;;;12.88;6.62;;;;;;;26.41;55.78;98701.98;1674405;84;21141;-60
2021/07/24 05:40:14;;;;;;;16.23;6.87;;;;;;;26.41;55.42;98697.93;1678586;83;21066;-58
2021/07/24 05:42:41;;;;;;;13.25;5.90;;;;;;;26.48;55.15;98705.56;1628236;85;21149;-56
2021/07/24 05:45:10;;;;;;;17.98;6.78;;;;;;;26.34;55.15;98705.69;1633081;86;21152;-59
2021/07/24 05:47:38;;;;;;;14.25;6.62;;;;;;;26.25;55.30;98707.56;1632374;85;21066;-58
2021/07/24 05:50:07;;;;;;;13.40;6.53;;;;;;;26.19;55.27;98707.47;1623986;85;21109;-55
2021/07/24 05:52:35;;;;;;;16.95;6.60;;;;;;;26.25;55.48;98704.06;1636547;87;21067;-56
2021/07/24 05:55:03;;;;;;;11.93;6.30;;;;;;;26.31;54.45;98704.16;1643313;87;21120;-59
2021/07/24 05:57:31;;;;;;;14.65;6.50;;;;;;;26.29;54.04;98707.73;1622472;87;21161;-59
2021/07/24 05:59:58;;;;;;;13.03;6.25;;;;;;;26.32;53.92;98706.53;1613797;86;21084;-58
2021/07/24 06:02:26;;;;;;;16.30;7.00;;;;;;;26.43;53.13;98701.66;1623451;87;21162;-55
2021/07/24 06:04:54;;;;;;;19.25;7.10;;;;;;;26.52;53.07;98701.69;1623451;87;21120;-60
2021/07/24 06:07:21;;;;;;;12.68;6.53;;;;;;;26.56;52.12;98706.15;1630741;86;21121;-63
2021/07/24 06:09:49;;;;;;;12.18;6.10;;;;;;;26.40;50.98;98705.77;1633876;86;21122;-60
2021/07/24 06:12:17;;;;;;;16.80;5.95;;;;;;;26.56;50.81;98710.77;1628118;87;21114;-54
2021/07/24 06:14:45;;;;;;;13.15;6.17;;;;;;;26.70;49.46;98704.08;1629001;87;21032;-57
2021/07/24 06:17:13;;;;;;;13.15;5.90;;;;;;;26.59;48.75;98708.20;1626864;86;21087;-60
2021/07/24 06:19:41;;;;;;;11.43;5.87;;;;;;;26.29;49.30;98710.44;1628525;87;21581;-58
2021/07/24 06:22:09;;;;;;;10.75;5.92;;;;;;;26.24;50.51;98716.78;1623021;87;21063;-60
2021/07/24 06:24:37;;;;;;;10.85;5.45;;;;;;;26.11;49.82;98713.09;1614615;87;21158;-57
2021/07/24 06:27:05;;;;;;;13.83;5.83;;;;;;;26.00;50.61;98707.73;1618884;87;21071;-60
2021/07/24 06:29:33;;;;;;;9.20;5.67;;;;;;;26.06;50.60;98705.69;1638087;87;21118;-59
2021/07/24 06:32:00;;;;;;;13.13;6.05;;;;;;;26.37;51.21;98705.59;1616551;87;21100;-55
2021/07/24 06:34:29;;;;;;;12.95;6.05;;;;;;;26.74;50.76;98706.95;1624599;86;21087;-58
2021/07/24 06:36:57;;;;;;;10.08;5.53;;;;;;;27.08;48.96;98713.50;1628873;86;21585;-60
2021/07/24 06:39:25;;;;;;;10.80;5.42;;;;;;;27.18;48.03;98710.45;1613976;87;21535;-58
2021/07/24 06:41:53;;;;;;;12.90;5.87;;;;;;;27.16;47.26;98719.45;1616491;87;21076;-60
2021/07/24 06:44:21;;;;;;;11.63;6.50;;;;;;;26.99;47.42;98711.55;1617427;86;22499;-60
2021/07/24 06:46:49;;;;;;;12.00;5.85;;;;;;;26.81;48.23;98718.64;1625987;87;21086;-58
2021/07/24 06:49:17;;;;;;;12.70;6.25;;;;;;;26.47;48.68;98715.59;1621032;87;21534;-60
2021/07/24 06:51:44;;;;;;;9.75;5.83;;;;;;;26.30;49.80;98716.08;1607728;87;21088;-61
2021/07/24 06:54:12;;;;;;;11.05;6.12;;;;;;;26.27;50.51;98716.72;1633741;86;21514;-61
2021/07/24 06:56:40;;;;;;;13.18;5.62;;;;;;;26.52;49.99;98711.94;1640606;86;21570;-56
2021/07/24 06:59:08;;;;;;;14.30;6.28;;;;;;;26.83;48.84;98717.20;1626445;87;21080;-61
2021/07/24 07:01:36;;;;;;;10.72;6.28;;;;;;;27.15;47.76;98720.02;1628824;87;21083;-59
2021/07/24 07:04:06;;;;;;;10.38;6.17;;;;;;;27.15;47.04;98713.80;1626574;86;21549;-56
2021/07/24 07:06:34;;;;;;;13.58;5.97;;;;;;;27.12;47.66;98719.84;1626808;87;21070;-62
2021/07/24 07:09:03;;;;;;;9.25;5.87;;;;;;;27.29;46.81;98714.97;1617047;87;21003;-61
2021/07/24 07:11:32;;;;;;;15.40;6.60;;;;;;;27.44;46.07;98711.77;1619866;86;21111;-59
2021/07/24 07:14:00;;;;;;;10.98;6.15;;;;;;;27.77;45.35;98711.45;1641781;86;21121;-59
2021/07/24 07:16:28;;;;;;;12.58;6.42;;;;;;;28.15;43.92;98711.98;1637058;86;21562;-60
2021/07/24 07:18:56;;;;;;;10.03;6.60;;;;;;;28.25;43.13;98714.89;1612368;87;21546;-60
2021/07/24 07:21:24;;;;;;;10.65;6.00;;;;;;;28.35;43.74;98717.82;1612998;86;21563;-59
2021/07/24 07:23:51;;;;;;;10.58;5.92;;;;;;;28.40;41.72;98718.99;1622445;87;21114;-60
2021/07/24 07:26:28;;;;;;;8.68;5.97;;;;;;;28.12;41.34;98722.70;1634936;86;21070;-58
2021/07/24 07:28:58;;;;;;;11.18;6.28;;;;;;;28.08;42.26;98719.05;1632180;86;21157;-57
2021/07/24 07:31:26;;;;;;;10.30;5.70;;;;;;;28.46;42.41;98725.24;1630262;86;21125;-59
2021/07/24 07:33:55;;;;;;;8.93;5.60;;;;;;;28.80;41.12;98723.41;1630902;86;21656;-58
2021/07/24 07:36:24;;;;;;;9.55;6.05;;;;;;;29.02;40.05;98725.81;1636564;87;21641;-59
2021/07/24 07:38:52;;;;;;;9.23;5.58;;;;;;;29.26;40.18;98722.96;1632105;86;21083;-60
2021/07/24 07:41:20;;;;;;;9.03;5.47;;;;;;;29.45;40.43;98730.59;1638088;86;21022;-63
2021/07/24 07:43:48;;;;;;;8.50;5.17;;;;;;;29.49;39.91;98723.37;1629573;86;21538;-59
2021/07/24 07:46:16;;;;;;;10.55;5.40;;;;;;;29.39;38.51;98715.08;1625448;87;21086;-60
2021/07/24 07:48:44;;;;;;;9.75;5.60;;;;;;;28.90;38.33;98724.34;1619261;86;21062;-59
2021/07/24 07:51:11;;;;;;;10.08;5.50;;;;;;;28.34;39.30;98721.09;1634720;86;21090;-60
2021/07/24 07:53:39;;;;;;;10.32;5.15;;;;;;;27.93;40.73;98729.33;1633140;86;21174;-61
2021/07/24 07:56:09;;;;;;;12.30;5.30;;;;;;;27.53;40.73;98722.81;1614047;87;21115;-61
2021/07/24 07:58:37;;;;;;;8.90;5.27;;;;;;;26.97;41.66;98721.91;1619937;86;21076;-58
2021/07/24 08:01:12;;;;;;;7.62;5.15;;;;;;;26.62;42.30;98735.17;1620044;85;21763;-59
2021/07/24 08:03:42;;;;;;;7.87;5.12;;;;;;;26.23;43.25;98730.05;1623365;86;21059;-61
2021/07/24 08:06:10;;;;;;;8.55;5.25;;;;;;;26.07;43.36;98726.97;1621572;86;21023;-59
2021/07/24 08:08:38;;;;;;;9.53;5.17;;;;;;;26.08;42.96;98733.97;1624254;86;22938;-57
2021/07/24 08:11:06;;;;;;;8.15;4.72;;;;;;;26.06;42.14;98725.95;1622208;86;21032;-56
2021/07/24 08:13:34;;;;;;;11.40;5.20;;;;;;;26.01;43.40;98726.88;1640670;85;21070;-59
2021/07/24 08:16:01;;;;;;;9.25;5.03;;;;;;;25.84;45.18;98729.50;1650847;86;21099;-59
2021/07/24 08:18:30;;;;;;;8.10;5.40;;;;;;;25.77;45.70;98728.61;1629517;85;21563;-60
2021/07/24 08:20:58;;;;;;;8.85;5.00;;;;;;;25.78;45.54;98724.80;1633206;85;21028;-59
2021/07/24 08:23:26;;;;;;;6.53;5.00;;;;;;;25.79;45.23;98723.69;1621776;86;21566;-61
2021/07/24 08:25:56;;;;;;;10.63;5.25;;;;;;;25.63;46.17;98731.91;1635238;85;21502;-61
2021/07/24 08:28:27;;;;;;;9.10;5.35;;;;;;;25.43;45.07;98740.77;1623587;85;21134;-60
2021/07/24 08:30:56;;;;;;;8.28;5.08;;;;;;;25.27;44.61;98733.36;1632615;85;21074;-59
2021/07/24 08:33:25;;;;;;;12.33;5.13;;;;;;;25.27;44.91;98732.80;1634676;85;21067;-60
2021/07/24 08:35:55;;;;;;;7.92;4.72;;;;;;;25.39;45.68;98737.09;1621405;86;21106;-61
2021/07/24 08:38:22;;;;;;;9.55;5.20;;;;;;;25.66;45.71;98732.65;1599235;88;21170;-61
2021/07/24 08:40:50;;;;;;;9.08;4.78;;;;;;;25.84;44.69;98733.00;1626368;85;21079;-59
2021/07/24 08:43:19;;;;;;;6.33;4.70;;;;;;;25.91;45.19;98729.30;1624537;85;21185;-62
2021/07/24 08:45:47;;;;;;;9.90;5.10;;;;;;;25.98;45.09;98719.94;1616012;86;21586;-62
2021/07/24 08:48:16;;;;;;;10.40;5.58;;;;;;;26.01;44.89;98726.08;1634462;86;21101;-60
2021/07/24 08:50:44;;;;;;;9.13;5.22;;;;;;;26.13;44.47;98718.97;1590597;86;21076;-60
2021/07/24 08:53:12;;;;;;;11.97;5.37;;;;;;;26.31;43.17;98719.81;1637287;86;21094;-62
2021/07/24 08:55:41;;;;;;;8.85;4.85;;;;;;;26.33;43.01;98713.55;1626229;87;21575;-57
2021/07/24 08:58:12;;;;;;;11.88;5.40;;;;;;;26.37;43.65;98714.50;1625516;86;21604;-60
2021/07/24 09:00:43;;;;;;;13.20;5.05;;;;;;;26.41;42.72;98717.41;1627793;86;21098;-58
2021/07/24 09:03:16;;;;;;;7.47;5.05;;;;;;;26.28;44.16;98725.06;1623318;86;21057;-57
2021/07/24 09:05:46;;;;;;;7.17;5.40;;;;;;;26.21;43.34;98715.52;1626718;86;21117;-58
2021/07/24 09:08:14;;;;;;;8.80;5.55;;;;;;;26.19;43.38;98727.73;1622446;86;21082;-59
2021/07/24 09:10:41;;;;;;;10.50;5.40;;;;;;;26.19;42.41;98720.41;1625041;86;21169;-57
2021/07/24 09:13:11;;;;;;;9.78;5.67;;;;;;;26.18;42.88;98718.03;1645856;85;21052;-59
2021/07/24 09:15:38;;;;;;;8.58;5.35;;;;;;;26.26;42.39;98709.70;1640895;85;21052;-60
2021/07/24 09:18:06;;;;;;;8.78;5.28;;;;;;;26.38;42.77;98717.99;1617976;86;21076;-60
2021/07/24 09:20:33;;;;;;;7.20;4.90;;;;;;;26.55;43.21;98720.75;1627378;86;21120;-59
2021/07/24 09:23:23;;;;;;;10.60;5.17;;;;;;;26.78;42.61;98724.11;1620973;86;21047;-58
2021/07/24 09:25:51;;;;;;;11.10;5.05;;;;;;;26.97;41.82;98724.61;1557850;89;21136;-60
2021/07/24 09:28:18;;;;;;;9.53;5.50;;;;;;;27.20;41.49;98721.77;1610106;86;21142;-60
2021/07/24 09:30:47;;;;;;;9.43;5.30;;;;;;;27.23;41.02;98715.69;1647162;85;21558;-58
2021/07/24 09:33:17;;;;;;;10.18;5.20;;;;;;;27.29;41.34;98713.05;1645675;85;21200;-58
2021/07/24 09:35:55;;;;;;;7.65;5.20;;;;;;;27.38;40.75;98717.11;1657311;85;21015;-59
2021/07/24 09:38:33;;;;;;;12.47;5.50;;;;;;;27.51;41.01;98710.14;1624277;86;21082;-57
2021/07/24 09:41:04;;;;;;;8.85;5.62;;;;;;;27.72;40.58;98711.63;1681758;83;21077;-59
2021/07/24 09:43:46;;;;;;;9.75;5.70;;;;;;;27.93;40.23;98710.36;1672247;84;21062;-59
2021/07/24 09:46:22;;;;;;;8.85;5.53;;;;;;;28.03;38.76;98702.41;1675240;83;21532;-60
2021/07/24 09:48:51;;;;;;;9.13;5.35;;;;;;;27.90;38.78;98706.94;1686703;84;21053;-62
2021/07/24 09:51:40;;;;;;;9.60;5.65;;;;;;;27.86;39.95;98706.55;1677635;83;21093;-61
2021/07/24 09:54:25;;;;;;;8.23;5.40;;;;;;;28.04;40.14;98698.05;1681287;84;21154;-59
2021/07/24 09:56:54;;;;;;;9.03;5.75;;;;;;;28.29;39.76;98700.36;1643630;83;21574;-62
2021/07/24 09:59:30;;;;;;;8.73;5.60;;;;;;;28.42;39.00;98709.95;1687053;83;21063;-60
2021/07/24 10:02:08;;;;;;;9.35;5.60;;;;;;;28.37;39.29;98711.50;1685048;83;21130;-60
2021/07/24 10:04:38;;;;;;;8.80;5.22;;;;;;;28.47;39.74;98705.70;1684555;83;21067;-58
2021/07/24 10:07:06;;;;;;;8.98;5.37;;;;;;;28.53;39.99;98703.03;1672223;82;21759;-55
2021/07/24 10:09:41;;;;;;;8.40;5.53;;;;;;;28.65;39.15;98709.08;1671605;83;21042;-59
2021/07/24 10:12:15;;;;;;;9.88;5.70;;;;;;;28.70;39.16;98711.59;1690599;83;21059;-60
2021/07/24 10:14:43;;;;;;;8.43;5.78;;;;;;;28.70;37.13;98708.89;1692874;84;21581;-57
2021/07/24 10:17:13;;;;;;;12.23;5.95;;;;;;;28.30;37.37;98710.08;1693200;84;21035;-59
2021/07/24 10:19:41;;;;;;;7.10;4.92;;;;;;;27.91;38.29;98701.75;1675472;83;21129;-59
2021/07/24 10:22:08;;;;;;;11.57;5.87;;;;;;;27.61;38.29;98705.51;1600108;83;20999;-60
2021/07/24 10:24:36;;;;;;;9.95;5.90;;;;;;;27.35;38.91;98702.86;1670815;83;21069;-58
2021/07/24 10:27:12;;;;;;;9.10;5.37;;;;;;;27.13;39.12;98706.02;1673272;83;21561;-55
2021/07/24 10:29:57;;;;;;;12.43;6.03;;;;;;;27.03;39.19;98705.52;1653045;84;21065;-61
2021/07/24 10:32:26;;;;;;;9.45;5.80;;;;;;;26.88;40.32;98710.84;1670628;83;21597;-59
2021/07/24 10:34:54;;;;;;;11.05;6.25;;;;;;;26.78;40.35;98707.89;1681246;83;21649;-60
2021/07/24 10:37:49;;;;;;;9.23;5.85;;;;;;;26.73;40.23;98706.72;1680786;83;21620;-59
2021/07/24 10:40:24;;;;;;;9.20;5.80;;;;;;;26.81;41.47;98711.88;1604348;87;21170;-58
2021/07/24 10:42:52;;;;;;;11.60;5.90;;;;;;;27.03;40.82;98712.28;1629691;87;21043;-57
2021/07/24 10:45:48;;;;;;;8.35;5.62;;;;;;;27.26;40.17;98700.98;1619260;87;21159;-61
2021/07/24 10:48:23;;;;;;;11.28;5.78;;;;;;;27.62;40.52;98705.73;1628571;87;21613;-57
2021/07/24 10:51:00;;;;;;;8.40;5.45;;;;;;;28.13;38.58;98705.31;1628539;85;21042;-61
2021/07/24 10:53:28;;;;;;;10.98;6.22;;;;;;;28.44;36.73;98703.07;1632341;86;21031;-60
2021/07/24 10:55:57;;;;;;;12.25;6.08;;;;;;;28.55;36.66;98707.55;1618265;87;21555;-59
2021/07/24 10:58:26;;;;;;;11.95;6.12;;;;;;;28.60;36.25;98706.56;1626750;87;21067;-59
2021/07/24 11:00:54;;;;;;;11.70;6.30;;;;;;;28.50;36.73;98707.73;1622948;87;21114;-60
2021/07/24 11:03:44;;;;;;;8.83;6.00;;;;;;;28.35;38.04;98709.12;1626087;87;21040;-61
2021/07/24 11:06:27;;;;;;;12.65;6.58;;;;;;;28.15;37.64;98705.21;1622725;85;21558;-59
2021/07/24 11:09:11;;;;;;;11.85;6.33;;;;;;;27.76;37.97;98713.94;1629173;86;21074;-61
2021/07/24 11:12:08;;;;;;;12.23;6.12;;;;;;;27.51;38.13;98706.08;1633000;86;21064;-59
2021/07/24 11:14:43;;;;;;;12.50;6.42;;;;;;;27.40;37.67;98712.16;1628629;86;21118;-54
2021/07/24 11:17:14;;;;;;;11.53;6.35;;;;;;;27.25;38.43;98708.07;1617006;85;21182;-58
2021/07/24 11:20:01;;;;;;;13.18;6.30;;;;;;;27.18;38.01;98705.86;1614560;86;21650;-59
2021/07/24 11:22:29;;;;;;;15.03;6.85;;;;;;;27.21;38.32;98705.76;1622176;86;21126;-59
2021/07/24 11:25:02;;;;;;;11.53;6.22;;;;;;;27.07;37.91;98712.72;1624369;85;21529;-61
2021/07/24 11:27:33;;;;;;;10.72;6.62;;;;;;;26.95;38.83;98720.09;1638082;85;21157;-60
2021/07/24 11:30:10;;;;;;;8.70;5.85;;;;;;;26.99;39.49;98712.91;1629689;85;21606;-59
2021/07/24 11:32:40;;;;;;;12.33;6.08;;;;;;;27.16;39.32;98711.34;1633432;87;21115;-60
2021/07/24 11:35:13;;;;;;;12.60;6.33;;;;;;;27.24;39.14;98715.92;1637817;86;21566;-57
2021/07/24 11:37:49;;;;;;;12.47;6.37;;;;;;;27.19;39.19;98711.50;1631820;87;21112;-59
2021/07/24 11:40:22;;;;;;;11.10;6.08;;;;;;;27.33;38.86;98719.42;1622722;87;21044;-57